sensor_id;sensor_type;location;lat;lon;timestamp;pressure;altitude;pressure_sealevel;temperature;humidity
19748;BME280;10032;51.386;12.516;2024-02-14T00:00:13;100550.94;;;4.54;100.00
19748;BME280;10032;51.386;12.516;2024-02-14T00:02:44;100543.50;;;4.56;100.00
19748;BME280;10032;51.386;12.516;2024-02-14T00:05:10;100543.72;;;4.61;100.00
19748;BME280;10032;51.386;12.516;2024-02-14T00:07:37;100549.75;;;4.63;100.00
19748;BME280;10032;51.386;12.516;2024-02-14T00:10:02;100545.00;;;4.65;100.00
19748;BME280;10032;51.386;12.516;2024-02-14T00:12:28;100546.03;;;4.64;100.00
19748;BME280;10032;51.386;12.516;2024-02-14T00:14:53;100539.63;;;4.65;100.00
19748;BME280;10032;51.386;12.516;2024-02-14T00:17:19;100547.09;;;4.70;100.00
19748;BME280;10032;51.386;12.516;2024-02-14T00:19:44;100539.47;;;4.73;100.00
19748;BME280;10032;51.386;12.516;2024-02-14T00:22:10;100542.75;;;4.75;100.00
19748;BME280;10032;51.386;12.516;2024-02-14T00:24:35;100540.06;;;4.75;100.00
19748;BME280;10032;51.386;12.516;2024-02-14T00:27:01;100545.84;;;4.79;100.00
19748;BME280;10032;51.386;12.516;2024-02-14T00:29:28;100550.19;;;4.80;100.00
19748;BME280;10032;51.386;12.516;2024-02-14T00:31:53;100551.63;;;4.82;100.00
19748;BME280;10032;51.386;12.516;2024-02-14T00:34:19;100542.78;;;4.82;100.00
19748;BME280;10032;51.386;12.516;2024-02-14T00:36:44;100543.59;;;4.82;100.00
19748;BME280;10032;51.386;12.516;2024-02-14T00:39:10;100544.22;;;4.84;100.00
19748;BME280;10032;51.386;12.516;2024-02-14T00:41:35;100543.59;;;4.82;100.00
19748;BME280;10032;51.386;12.516;2024-02-14T00:44:01;100550.63;;;4.83;100.00
19748;BME280;10032;51.386;12.516;2024-02-14T00:46:28;100547.72;;;4.85;100.00
19748;BME280;10032;51.386;12.516;2024-02-14T00:48:54;100545.50;;;4.88;100.00
19748;BME280;10032;51.386;12.516;2024-02-14T00:51:21;100538.88;;;4.91;100.00
19748;BME280;10032;51.386;12.516;2024-02-14T00:53:46;100541.56;;;4.91;100.00
19748;BME280;10032;51.386;12.516;2024-02-14T00:56:12;100537.84;;;4.92;100.00
19748;BME280;10032;51.386;12.516;2024-02-14T00:58:37;100546.31;;;4.95;100.00
19748;BME280;10032;51.386;12.516;2024-02-14T01:01:02;100540.31;;;4.93;100.00
19748;BME280;10032;51.386;12.516;2024-02-14T01:03:28;100547.75;;;4.91;100.00
19748;BME280;10032;51.386;12.516;2024-02-14T01:05:53;100542.59;;;4.96;100.00
19748;BME280;10032;51.386;12.516;2024-02-14T01:08:20;100541.97;;;4.94;100.00
19748;BME280;10032;51.386;12.516;2024-02-14T01:10:46;100546.94;;;4.97;100.00
19748;BME280;10032;51.386;12.516;2024-02-14T01:13:12;100534.53;;;4.96;100.00
19748;BME280;10032;51.386;12.516;2024-02-14T01:15:37;100527.53;;;4.95;100.00
19748;BME280;10032;51.386;12.516;2024-02-14T01:18:03;100529.78;;;4.98;100.00
19748;BME280;10032;51.386;12.516;2024-02-14T01:20:29;100519.88;;;4.99;100.00
19748;BME280;10032;51.386;12.516;2024-02-14T01:22:54;100522.78;;;4.97;100.00
19748;BME280;10032;51.386;12.516;2024-02-14T01:25:20;100516.59;;;4.97;100.00
19748;BME280;10032;51.386;12.516;2024-02-14T01:27:45;100514.09;;;4.95;100.00
19748;BME280;10032;51.386;12.516;2024-02-14T01:30:11;100522.78;;;4.97;100.00
19748;BME280;10032;51.386;12.516;2024-02-14T01:32:37;100520.50;;;4.94;100.00
19748;BME280;10032;51.386;12.516;2024-02-14T01:35:04;100515.75;;;4.96;100.00
19748;BME280;10032;51.386;12.516;2024-02-14T01:37:29;100511.44;;;5.02;100.00
19748;BME280;10032;51.386;12.516;2024-02-14T01:39:55;100511.00;;;5.05;100.00
19748;BME280;10032;51.386;12.516;2024-02-14T01:42:21;100503.78;;;5.05;100.00
19748;BME280;10032;51.386;12.516;2024-02-14T01:44:46;100499.47;;;5.04;100.00
19748;BME280;10032;51.386;12.516;2024-02-14T01:47:12;100494.09;;;5.04;100.00
19748;BME280;10032;51.386;12.516;2024-02-14T01:49:38;100497.38;;;5.06;100.00
19748;BME280;10032;51.386;12.516;2024-02-14T01:52:04;100497.19;;;5.08;100.00
19748;BME280;10032;51.386;12.516;2024-02-14T01:54:31;100503.81;;;5.12;100.00
19748;BME280;10032;51.386;12.516;2024-02-14T01:57:00;100504.22;;;5.15;100.00
19748;BME280;10032;51.386;12.516;2024-02-14T01:59:26;100503.78;;;5.18;100.00
19748;BME280;10032;51.386;12.516;2024-02-14T02:01:52;100500.91;;;5.20;100.00
19748;BME280;10032;51.386;12.516;2024-02-14T02:04:18;100505.03;;;5.22;100.00
19748;BME280;10032;51.386;12.516;2024-02-14T02:06:44;100501.94;;;5.25;100.00
19748;BME280;10032;51.386;12.516;2024-02-14T02:09:09;100498.22;;;5.26;100.00
19748;BME280;10032;51.386;12.516;2024-02-14T02:11:51;100498.22;;;5.26;100.00
19748;BME280;10032;51.386;12.516;2024-02-14T02:14:19;100506.88;;;5.28;100.00
19748;BME280;10032;51.386;12.516;2024-02-14T02:16:44;100502.56;;;5.27;100.00
19748;BME280;10032;51.386;12.516;2024-02-14T02:19:11;100500.91;;;5.26;100.00
19748;BME280;10032;51.386;12.516;2024-02-14T02:21:36;100497.59;;;5.24;100.00
19748;BME280;10032;51.386;12.516;2024-02-14T02:24:02;100493.25;;;5.23;100.00
19748;BME280;10032;51.386;12.516;2024-02-14T02:26:28;100495.34;;;5.21;100.00
19748;BME280;10032;51.386;12.516;2024-02-14T02:28:53;100495.13;;;5.23;100.00
19748;BME280;10032;51.386;12.516;2024-02-14T02:31:22;100493.47;;;5.15;100.00
19748;BME280;10032;51.386;12.516;2024-02-14T02:33:47;100492.44;;;5.16;100.00
19748;BME280;10032;51.386;12.516;2024-02-14T02:36:13;100486.66;;;5.13;100.00
19748;BME280;10032;51.386;12.516;2024-02-14T02:38:38;100489.53;;;5.11;100.00
19748;BME280;10032;51.386;12.516;2024-02-14T02:41:04;100473.44;;;5.11;100.00
19748;BME280;10032;51.386;12.516;2024-02-14T02:43:33;100481.88;;;5.08;100.00
19748;BME280;10032;51.386;12.516;2024-02-14T02:45:59;100481.28;;;5.06;100.00
19748;BME280;10032;51.386;12.516;2024-02-14T02:48:24;100475.50;;;5.03;100.00
19748;BME280;10032;51.386;12.516;2024-02-14T02:50:50;100478.38;;;5.01;100.00
19748;BME280;10032;51.386;12.516;2024-02-14T02:53:16;100477.13;;;4.97;100.00
19748;BME280;10032;51.386;12.516;2024-02-14T02:55:42;100474.88;;;4.94;100.00
19748;BME280;10032;51.386;12.516;2024-02-14T02:58:08;100472.38;;;4.93;100.00
19748;BME280;10032;51.386;12.516;2024-02-14T03:00:33;100466.81;;;4.88;100.00
19748;BME280;10032;51.386;12.516;2024-02-14T03:02:59;100471.97;;;4.83;100.00
19748;BME280;10032;51.386;12.516;2024-02-14T03:05:25;100473.00;;;4.82;100.00
19748;BME280;10032;51.386;12.516;2024-02-14T03:07:51;100465.97;;;4.81;100.00
19748;BME280;10032;51.386;12.516;2024-02-14T03:10:18;100466.56;;;4.76;100.00
19748;BME280;10032;51.386;12.516;2024-02-14T03:12:49;100464.31;;;4.73;100.00
19748;BME280;10032;51.386;12.516;2024-02-14T03:15:15;100452.13;;;4.71;100.00
19748;BME280;10032;51.386;12.516;2024-02-14T03:17:41;100441.59;;;4.69;100.00
19748;BME280;10032;51.386;12.516;2024-02-14T03:20:08;100442.84;;;4.67;100.00
19748;BME280;10032;51.386;12.516;2024-02-14T03:22:40;100438.31;;;4.67;100.00
19748;BME280;10032;51.386;12.516;2024-02-14T03:25:16;100436.63;;;4.66;100.00
19748;BME280;10032;51.386;12.516;2024-02-14T03:27:43;100430.66;;;4.64;100.00
19748;BME280;10032;51.386;12.516;2024-02-14T03:30:12;100434.19;;;4.65;100.00
19748;BME280;10032;51.386;12.516;2024-02-14T03:32:38;100433.72;;;4.61;100.00
19748;BME280;10032;51.386;12.516;2024-02-14T03:35:04;100431.28;;;4.60;100.00
19748;BME280;10032;51.386;12.516;2024-02-14T03:37:29;100424.03;;;4.60;100.00
19748;BME280;10032;51.386;12.516;2024-02-14T03:39:55;100425.06;;;4.59;100.00
19748;BME280;10032;51.386;12.516;2024-02-14T03:42:21;100426.72;;;4.60;100.00
19748;BME280;10032;51.386;12.516;2024-02-14T03:44:46;100425.91;;;4.60;100.00
19748;BME280;10032;51.386;12.516;2024-02-14T03:47:12;100434.16;;;4.58;100.00
19748;BME280;10032;51.386;12.516;2024-02-14T03:49:39;100425.91;;;4.60;100.00
19748;BME280;10032;51.386;12.516;2024-02-14T03:52:06;100425.28;;;4.64;100.00
19748;BME280;10032;51.386;12.516;2024-02-14T03:54:35;100425.69;;;4.61;100.00
19748;BME280;10032;51.386;12.516;2024-02-14T03:57:01;100425.91;;;4.60;100.00
19748;BME280;10032;51.386;12.516;2024-02-14T03:59:29;100426.72;;;4.60;100.00
19748;BME280;10032;51.386;12.516;2024-02-14T04:01:55;100421.34;;;4.60;100.00
19748;BME280;10032;51.386;12.516;2024-02-14T04:04:20;100417.63;;;4.61;100.00
19748;BME280;10032;51.386;12.516;2024-02-14T04:06:46;100418.88;;;4.65;100.00
19748;BME280;10032;51.386;12.516;2024-02-14T04:09:11;100420.13;;;4.69;100.00
19748;BME280;10032;51.386;12.516;2024-02-14T04:11:37;100418.91;;;4.72;100.00
19748;BME280;10032;51.386;12.516;2024-02-14T04:14:02;100422.00;;;4.75;100.00
19748;BME280;10032;51.386;12.516;2024-02-14T04:16:28;100411.88;;;4.77;100.00
19748;BME280;10032;51.386;12.516;2024-02-14T04:18:53;100408.78;;;4.80;100.00
19748;BME280;10032;51.386;12.516;2024-02-14T04:21:20;100411.69;;;4.85;100.00
19748;BME280;10032;51.386;12.516;2024-02-14T04:23:46;100417.88;;;4.92;100.00
19748;BME280;10032;51.386;12.516;2024-02-14T04:26:21;100411.66;;;4.98;100.00
19748;BME280;10032;51.386;12.516;2024-02-14T04:28:46;100409.81;;;5.05;100.00
19748;BME280;10032;51.386;12.516;2024-02-14T04:31:12;100418.09;;;5.10;100.00
19748;BME280;10032;51.386;12.516;2024-02-14T04:33:37;100402.97;;;5.16;100.00
19748;BME280;10032;51.386;12.516;2024-02-14T04:36:03;100405.25;;;5.25;100.00
19748;BME280;10032;51.386;12.516;2024-02-14T04:38:30;100398.41;;;5.29;100.00
19748;BME280;10032;51.386;12.516;2024-02-14T04:40:56;100399.84;;;5.38;100.00
19748;BME280;10032;51.386;12.516;2024-02-14T04:43:22;100398.59;;;5.47;100.00
19748;BME280;10032;51.386;12.516;2024-02-14T04:45:47;100393.19;;;5.54;100.00
19748;BME280;10032;51.386;12.516;2024-02-14T04:48:13;100386.34;;;5.64;100.00
19748;BME280;10032;51.386;12.516;2024-02-14T04:50:38;100385.69;;;5.69;100.00
19748;BME280;10032;51.386;12.516;2024-02-14T04:53:04;100384.63;;;5.76;100.00
19748;BME280;10032;51.386;12.516;2024-02-14T04:55:29;100380.31;;;5.82;100.00
19748;BME280;10032;51.386;12.516;2024-02-14T04:57:55;100373.25;;;5.87;100.00
19748;BME280;10032;51.386;12.516;2024-02-14T05:00:20;100374.06;;;5.94;100.00
19748;BME280;10032;51.386;12.516;2024-02-14T05:02:45;100369.69;;;6.00;100.00
19748;BME280;10032;51.386;12.516;2024-02-14T05:05:11;100364.47;;;6.05;100.00
19748;BME280;10032;51.386;12.516;2024-02-14T05:07:36;100370.03;;;6.10;100.00
19748;BME280;10032;51.386;12.516;2024-02-14T05:10:02;100368.97;;;6.17;100.00
19748;BME280;10032;51.386;12.516;2024-02-14T05:12:28;100367.88;;;6.25;100.00
19748;BME280;10032;51.386;12.516;2024-02-14T05:14:53;100363.50;;;6.30;100.00
19748;BME280;10032;51.386;12.516;2024-02-14T05:17:19;100362.66;;;6.36;100.00
19748;BME280;10032;51.386;12.516;2024-02-14T05:19:44;100361.78;;;6.42;100.00
19748;BME280;10032;51.386;12.516;2024-02-14T05:22:10;100357.59;;;6.46;100.00
19748;BME280;10032;51.386;12.516;2024-02-14T05:24:35;100365.25;;;6.49;100.00
19748;BME280;10032;51.386;12.516;2024-02-14T05:27:03;100373.69;;;6.53;100.00
19748;BME280;10032;51.386;12.516;2024-02-14T05:29:29;100365.41;;;6.54;100.00
19748;BME280;10032;51.386;12.516;2024-02-14T05:31:54;100372.00;;;6.58;100.00
19748;BME280;10032;51.386;12.516;2024-02-14T05:34:21;100369.50;;;6.63;100.00
19748;BME280;10032;51.386;12.516;2024-02-14T05:36:46;100369.03;;;6.66;100.00
19748;BME280;10032;51.386;12.516;2024-02-14T05:39:13;100380.81;;;6.72;100.00
19748;BME280;10032;51.386;12.516;2024-02-14T05:41:39;100368.56;;;6.76;100.00
19748;BME280;10032;51.386;12.516;2024-02-14T05:44:05;100376.19;;;6.79;100.00
19748;BME280;10032;51.386;12.516;2024-02-14T05:46:30;100373.66;;;6.84;100.00
19748;BME280;10032;51.386;12.516;2024-02-14T05:48:56;100370.53;;;6.87;100.00
19748;BME280;10032;51.386;12.516;2024-02-14T05:51:23;100366.34;;;6.91;100.00
19748;BME280;10032;51.386;12.516;2024-02-14T05:53:48;100363.44;;;6.92;100.00
19748;BME280;10032;51.386;12.516;2024-02-14T05:56:13;100364.66;;;6.96;100.00
19748;BME280;10032;51.386;12.516;2024-02-14T05:58:39;100372.91;;;7.01;100.00
19748;BME280;10032;51.386;12.516;2024-02-14T06:01:04;100365.41;;;7.03;100.00
19748;BME280;10032;51.386;12.516;2024-02-14T06:03:30;100364.97;;;7.06;100.00
19748;BME280;10032;51.386;12.516;2024-02-14T06:05:56;100351.03;;;7.09;100.00
19748;BME280;10032;51.386;12.516;2024-02-14T06:08:21;100354.16;;;7.13;100.00
19748;BME280;10032;51.386;12.516;2024-02-14T06:10:49;100363.66;;;7.15;100.00
19748;BME280;10032;51.386;12.516;2024-02-14T06:13:14;100359.44;;;7.19;100.00
19748;BME280;10032;51.386;12.516;2024-02-14T06:15:39;100356.75;;;7.19;100.00
19748;BME280;10032;51.386;12.516;2024-02-14T06:18:05;100342.25;;;7.20;100.00
19748;BME280;10032;51.386;12.516;2024-02-14T06:20:31;100347.41;;;7.22;100.00
19748;BME280;10032;51.386;12.516;2024-02-14T06:22:57;100349.88;;;7.23;100.00
19748;BME280;10032;51.386;12.516;2024-02-14T06:25:22;100348.81;;;7.24;100.00
19748;BME280;10032;51.386;12.516;2024-02-14T06:27:51;100342.38;;;7.25;100.00
19748;BME280;10032;51.386;12.516;2024-02-14T06:30:16;100336.56;;;7.28;100.00
19748;BME280;10032;51.386;12.516;2024-02-14T06:32:42;100341.53;;;7.31;100.00
19748;BME280;10032;51.386;12.516;2024-02-14T06:35:08;100338.97;;;7.36;100.00
19748;BME280;10032;51.386;12.516;2024-02-14T06:37:33;100333.59;;;7.36;100.00
19748;BME280;10032;51.386;12.516;2024-02-14T06:39:58;100332.75;;;7.36;100.00
19748;BME280;10032;51.386;12.516;2024-02-14T06:42:24;100326.09;;;7.38;100.00
19748;BME280;10032;51.386;12.516;2024-02-14T06:44:49;100322.94;;;7.41;100.00
19748;BME280;10032;51.386;12.516;2024-02-14T06:47:15;100322.72;;;7.43;100.00
19748;BME280;10032;51.386;12.516;2024-02-14T06:49:40;100313.34;;;7.45;100.00
19748;BME280;10032;51.386;12.516;2024-02-14T06:52:06;100319.94;;;7.49;100.00
19748;BME280;10032;51.386;12.516;2024-02-14T06:54:31;100310.59;;;7.52;100.00
19748;BME280;10032;51.386;12.516;2024-02-14T06:56:56;100314.69;;;7.54;100.00
19748;BME280;10032;51.386;12.516;2024-02-14T06:59:22;100307.19;;;7.56;100.00
19748;BME280;10032;51.386;12.516;2024-02-14T07:01:47;100315.44;;;7.61;100.00
19748;BME280;10032;51.386;12.516;2024-02-14T07:04:12;100316.41;;;7.67;100.00
19748;BME280;10032;51.386;12.516;2024-02-14T07:06:38;100321.13;;;7.71;100.00
19748;BME280;10032;51.386;12.516;2024-02-14T07:09:03;100319.63;;;7.75;100.00
19748;BME280;10032;51.386;12.516;2024-02-14T07:11:29;100321.84;;;7.78;100.00
19748;BME280;10032;51.386;12.516;2024-02-14T07:13:54;100326.34;;;7.84;100.00
19748;BME280;10032;51.386;12.516;2024-02-14T07:16:19;100324.47;;;7.85;100.00
19748;BME280;10032;51.386;12.516;2024-02-14T07:18:45;100322.75;;;7.90;100.00
19748;BME280;10032;51.386;12.516;2024-02-14T07:21:10;100334.13;;;7.92;100.00
19748;BME280;10032;51.386;12.516;2024-02-14T07:23:36;100332.03;;;7.94;100.00
19748;BME280;10032;51.386;12.516;2024-02-14T07:26:01;100333.69;;;7.95;100.00
19748;BME280;10032;51.386;12.516;2024-02-14T07:28:27;100344.00;;;7.98;100.00
19748;BME280;10032;51.386;12.516;2024-02-14T07:30:52;100332.97;;;8.00;100.00
19748;BME280;10032;51.386;12.516;2024-02-14T07:33:18;100334.84;;;7.99;100.00
19748;BME280;10032;51.386;12.516;2024-02-14T07:35:43;100339.78;;;8.02;100.00
19748;BME280;10032;51.386;12.516;2024-02-14T07:38:09;100336.03;;;8.03;100.00
19748;BME280;10032;51.386;12.516;2024-02-14T07:40:34;100344.75;;;8.05;100.00
19748;BME280;10032;51.386;12.516;2024-02-14T07:43:00;100344.28;;;8.08;100.00
19748;BME280;10032;51.386;12.516;2024-02-14T07:45:26;100347.59;;;8.10;100.00
19748;BME280;10032;51.386;12.516;2024-02-14T07:47:51;100338.44;;;8.11;100.00
19748;BME280;10032;51.386;12.516;2024-02-14T07:50:17;100336.31;;;8.13;100.00
19748;BME280;10032;51.386;12.516;2024-02-14T07:52:43;100329.63;;;8.16;100.00
19748;BME280;10032;51.386;12.516;2024-02-14T07:55:09;100334.97;;;8.22;100.00
19748;BME280;10032;51.386;12.516;2024-02-14T07:57:37;100330.31;;;8.29;100.00
19748;BME280;10032;51.386;12.516;2024-02-14T08:00:05;100330.66;;;8.33;100.00
19748;BME280;10032;51.386;12.516;2024-02-14T08:02:30;100330.78;;;8.38;100.00
19748;BME280;10032;51.386;12.516;2024-02-14T08:04:55;100333.84;;;8.41;100.00
19748;BME280;10032;51.386;12.516;2024-02-14T08:07:21;100330.25;;;8.47;100.00
19748;BME280;10032;51.386;12.516;2024-02-14T08:09:46;100323.91;;;8.53;100.00
19748;BME280;10032;51.386;12.516;2024-02-14T08:12:12;100334.13;;;8.63;100.00
19748;BME280;10032;51.386;12.516;2024-02-14T08:14:38;100343.31;;;8.73;100.00
19748;BME280;10032;51.386;12.516;2024-02-14T08:17:03;100344.63;;;8.82;100.00
19748;BME280;10032;51.386;12.516;2024-02-14T08:19:29;100346.16;;;8.90;100.00
19748;BME280;10032;51.386;12.516;2024-02-14T08:21:54;100353.66;;;8.99;100.00
19748;BME280;10032;51.386;12.516;2024-02-14T08:24:25;100351.47;;;9.08;100.00
19748;BME280;10032;51.386;12.516;2024-02-14T08:26:51;100348.38;;;9.16;100.00
19748;BME280;10032;51.386;12.516;2024-02-14T08:29:16;100347.78;;;9.25;100.00
19748;BME280;10032;51.386;12.516;2024-02-14T08:31:41;100345.19;;;9.30;100.00
19748;BME280;10032;51.386;12.516;2024-02-14T08:34:07;100346.84;;;9.31;100.00
19748;BME280;10032;51.386;12.516;2024-02-14T08:36:35;100351.34;;;9.37;100.00
19748;BME280;10032;51.386;12.516;2024-02-14T08:39:06;100351.56;;;9.47;100.00
19748;BME280;10032;51.386;12.516;2024-02-14T08:41:32;100360.94;;;9.56;100.00
19748;BME280;10032;51.386;12.516;2024-02-14T08:43:57;100359.50;;;9.65;100.00
19748;BME280;10032;51.386;12.516;2024-02-14T08:46:22;100353.59;;;9.68;100.00
19748;BME280;10032;51.386;12.516;2024-02-14T08:48:48;100351.00;;;9.73;100.00
19748;BME280;10032;51.386;12.516;2024-02-14T08:51:14;100355.94;;;9.76;100.00
19748;BME280;10032;51.386;12.516;2024-02-14T08:53:40;100352.19;;;9.77;100.00
19748;BME280;10032;51.386;12.516;2024-02-14T08:56:09;100346.78;;;9.77;100.00
19748;BME280;10032;51.386;12.516;2024-02-14T08:58:36;100347.38;;;9.79;100.00
19748;BME280;10032;51.386;12.516;2024-02-14T09:01:01;100348.78;;;9.82;100.00
19748;BME280;10032;51.386;12.516;2024-02-14T09:03:26;100344.84;;;9.89;100.00
19748;BME280;10032;51.386;12.516;2024-02-14T09:05:52;100349.31;;;9.95;100.00
19748;BME280;10032;51.386;12.516;2024-02-14T09:08:18;100341.66;;;10.04;100.00
19748;BME280;10032;51.386;12.516;2024-02-14T09:10:46;100331.75;;;10.09;100.00
19748;BME280;10032;51.386;12.516;2024-02-14T09:13:11;100334.78;;;10.13;100.00
19748;BME280;10032;51.386;12.516;2024-02-14T09:15:37;100341.97;;;10.19;100.00
19748;BME280;10032;51.386;12.516;2024-02-14T09:18:02;100339.34;;;10.24;100.00
19748;BME280;10032;51.386;12.516;2024-02-14T09:20:28;100340.25;;;10.29;100.00
19748;BME280;10032;51.386;12.516;2024-02-14T09:22:55;100333.06;;;10.35;100.00
19748;BME280;10032;51.386;12.516;2024-02-14T09:25:21;100335.03;;;10.39;100.00
19748;BME280;10032;51.386;12.516;2024-02-14T09:27:49;100337.31;;;10.47;100.00
19748;BME280;10032;51.386;12.516;2024-02-14T09:30:15;100344.97;;;10.50;100.00
19748;BME280;10032;51.386;12.516;2024-02-14T09:32:45;100353.75;;;10.57;100.00
19748;BME280;10032;51.386;12.516;2024-02-14T09:35:12;100353.28;;;10.60;100.00
19748;BME280;10032;51.386;12.516;2024-02-14T09:37:38;100350.16;;;10.68;100.00
19748;BME280;10032;51.386;12.516;2024-02-14T09:40:05;100347.53;;;10.73;100.00
19748;BME280;10032;51.386;12.516;2024-02-14T09:42:38;100353.78;;;10.74;100.00
19748;BME280;10032;51.386;12.516;2024-02-14T09:45:06;100351.16;;;10.79;100.00
19748;BME280;10032;51.386;12.516;2024-02-14T09:47:32;100351.56;;;10.87;100.00
19748;BME280;10032;51.386;12.516;2024-02-14T09:49:59;100355.44;;;10.91;100.00
19748;BME280;10032;51.386;12.516;2024-02-14T09:52:26;100351.97;;;11.12;100.00
19748;BME280;10032;51.386;12.516;2024-02-14T09:54:52;100357.69;;;11.32;100.00
19748;BME280;10032;51.386;12.516;2024-02-14T09:57:18;100352.06;;;11.55;100.00
19748;BME280;10032;51.386;12.516;2024-02-14T09:59:44;100351.84;;;11.78;100.00
19748;BME280;10032;51.386;12.516;2024-02-14T10:02:10;100348.34;;;12.04;100.00
19748;BME280;10032;51.386;12.516;2024-02-14T10:04:36;100347.69;;;12.19;100.00
19748;BME280;10032;51.386;12.516;2024-02-14T10:07:04;100352.31;;;12.18;100.00
19748;BME280;10032;51.386;12.516;2024-02-14T10:09:30;100342.66;;;12.27;100.00
19748;BME280;10032;51.386;12.516;2024-02-14T10:11:56;100346.28;;;12.38;100.00
19748;BME280;10032;51.386;12.516;2024-02-14T10:14:25;100347.66;;;12.40;100.00
19748;BME280;10032;51.386;12.516;2024-02-14T10:16:51;100350.88;;;12.37;100.00
19748;BME280;10032;51.386;12.516;2024-02-14T10:19:20;100345.44;;;12.37;100.00
19748;BME280;10032;51.386;12.516;2024-02-14T10:21:56;100352.56;;;12.38;100.00
19748;BME280;10032;51.386;12.516;2024-02-14T10:24:24;100356.84;;;12.34;100.00
19748;BME280;10032;51.386;12.516;2024-02-14T10:26:50;100359.50;;;12.29;100.00
19748;BME280;10032;51.386;12.516;2024-02-14T10:29:16;100353.53;;;12.27;100.00
19748;BME280;10032;51.386;12.516;2024-02-14T10:31:41;100369.25;;;12.25;100.00
19748;BME280;10032;51.386;12.516;2024-02-14T10:34:07;100352.56;;;12.17;100.00
19748;BME280;10032;51.386;12.516;2024-02-14T10:36:35;100364.34;;;12.22;100.00
19748;BME280;10032;51.386;12.516;2024-02-14T10:39:01;100364.81;;;12.19;100.00
19748;BME280;10032;51.386;12.516;2024-02-14T10:41:30;100370.25;;;12.19;100.00
19748;BME280;10032;51.386;12.516;2024-02-14T10:44:02;100374.56;;;12.15;100.00
19748;BME280;10032;51.386;12.516;2024-02-14T10:46:31;100371.84;;;12.15;100.00
19748;BME280;10032;51.386;12.516;2024-02-14T10:49:04;100376.41;;;12.10;100.00
19748;BME280;10032;51.386;12.516;2024-02-14T10:51:32;100372.25;;;12.02;100.00
19748;BME280;10032;51.386;12.516;2024-02-14T10:54:00;100372.25;;;12.02;100.00
19748;BME280;10032;51.386;12.516;2024-02-14T10:56:28;100385.28;;;12.05;100.00
19748;BME280;10032;51.386;12.516;2024-02-14T10:58:56;100370.25;;;11.98;100.00
19748;BME280;10032;51.386;12.516;2024-02-14T11:01:26;100376.97;;;11.90;100.00
19748;BME280;10032;51.386;12.516;2024-02-14T11:03:56;100375.84;;;11.86;100.00
19748;BME280;10032;51.386;12.516;2024-02-14T11:06:23;100370.41;;;11.86;100.00
19748;BME280;10032;51.386;12.516;2024-02-14T11:09:02;100369.19;;;11.77;100.00
19748;BME280;10032;51.386;12.516;2024-02-14T11:11:33;100362.50;;;11.85;100.00
19748;BME280;10032;51.386;12.516;2024-02-14T11:13:59;100381.28;;;11.86;100.00
19748;BME280;10032;51.386;12.516;2024-02-14T11:16:28;100377.97;;;11.84;100.00
19748;BME280;10032;51.386;12.516;2024-02-14T11:19:05;100383.09;;;11.81;100.00
19748;BME280;10032;51.386;12.516;2024-02-14T11:21:35;100387.19;;;11.83;100.00
19748;BME280;10032;51.386;12.516;2024-02-14T11:24:07;100379.81;;;11.79;100.00
19748;BME280;10032;51.386;12.516;2024-02-14T11:26:49;100380.63;;;11.79;100.00
19748;BME280;10032;51.386;12.516;2024-02-14T11:29:17;100382.84;;;11.82;100.00
19748;BME280;10032;51.386;12.516;2024-02-14T11:31:43;100369.56;;;11.86;100.00
19748;BME280;10032;51.386;12.516;2024-02-14T11:34:11;100367.63;;;11.81;100.00
19748;BME280;10032;51.386;12.516;2024-02-14T11:36:38;100363.41;;;11.90;100.00
19748;BME280;10032;51.386;12.516;2024-02-14T11:39:04;100361.13;;;12.04;100.00
19748;BME280;10032;51.386;12.516;2024-02-14T11:41:32;100366.47;;;12.20;100.00
19748;BME280;10032;51.386;12.516;2024-02-14T11:44:01;100370.81;;;12.21;100.00
19748;BME280;10032;51.386;12.516;2024-02-14T11:46:29;100364.88;;;12.24;100.00
19748;BME280;10032;51.386;12.516;2024-02-14T11:48:55;100360.59;;;12.28;100.00
19748;BME280;10032;51.386;12.516;2024-02-14T11:51:22;100362.16;;;12.24;100.00
19748;BME280;10032;51.386;12.516;2024-02-14T11:53:47;100348.94;;;12.33;100.00
19748;BME280;10032;51.386;12.516;2024-02-14T11:56:14;100362.88;;;12.41;100.00
19748;BME280;10032;51.386;12.516;2024-02-14T11:58:39;100360.22;;;12.46;100.00
19748;BME280;10032;51.386;12.516;2024-02-14T12:01:05;100367.00;;;12.44;100.00
19748;BME280;10032;51.386;12.516;2024-02-14T12:03:31;100366.19;;;12.43;100.00
19748;BME280;10032;51.386;12.516;2024-02-14T12:05:56;100361.84;;;12.47;100.00
19748;BME280;10032;51.386;12.516;2024-02-14T12:08:22;100362.50;;;12.54;100.00
19748;BME280;10032;51.386;12.516;2024-02-14T12:10:48;100367.94;;;12.54;100.00
19748;BME280;10032;51.386;12.516;2024-02-14T12:13:21;100370.66;;;12.54;100.00
19748;BME280;10032;51.386;12.516;2024-02-14T12:15:48;100371.75;;;12.58;100.00
19748;BME280;10032;51.386;12.516;2024-02-14T12:18:14;100372.53;;;12.54;100.00
19748;BME280;10032;51.386;12.516;2024-02-14T12:20:40;100354.34;;;12.54;100.00
19748;BME280;10032;51.386;12.516;2024-02-14T12:23:06;100359.19;;;12.52;100.00
19748;BME280;10032;51.386;12.516;2024-02-14T12:25:33;100356.81;;;12.61;100.00
19748;BME280;10032;51.386;12.516;2024-02-14T12:27:59;100358.00;;;12.70;100.00
19748;BME280;10032;51.386;12.516;2024-02-14T12:30:58;100361.31;;;12.77;100.00
19748;BME280;10032;51.386;12.516;2024-02-14T12:33:25;100367.09;;;12.80;100.00